createdAt,value
2018-11-10T00:00:02.616Z,12.17
2018-11-10T00:03:07.957Z,11.63
2018-11-10T00:06:12.490Z,12.03
2018-11-10T00:09:17.083Z,11.47
2018-11-10T00:12:21.920Z,12.13
2018-11-10T00:15:27.138Z,11.63
2018-11-10T00:18:31.712Z,11.83
2018-11-10T00:21:36.026Z,11.17
2018-11-10T00:24:40.394Z,12.60
2018-11-10T00:27:45.838Z,11.37
2018-11-10T00:30:50.132Z,11.73
2018-11-10T00:33:54.428Z,11.17
2018-11-10T00:36:58.807Z,11.90
2018-11-10T00:40:03.152Z,11.27
2018-11-10T00:43:07.454Z,10.27
2018-11-10T00:46:11.864Z,11.03
2018-11-10T00:49:16.455Z,11.97
2018-11-10T00:52:20.753Z,12.63
2018-11-10T00:55:25.056Z,11.83
2018-11-10T00:58:29.388Z,11.60
2018-11-10T01:01:33.696Z,11.57
2018-11-10T01:04:38.026Z,10.83
2018-11-10T01:07:42.572Z,11.07
2018-11-10T01:10:46.884Z,11.40
2018-11-10T01:13:51.222Z,11.88
2018-11-10T01:16:55.517Z,11.43
2018-11-10T01:19:59.825Z,11.40
2018-11-10T01:23:04.156Z,11.38
2018-11-10T01:26:08.470Z,10.60
2018-11-10T01:29:12.849Z,9.80
2018-11-10T01:32:17.217Z,10.50
2018-11-10T01:35:21.514Z,10.07
2018-11-10T01:38:25.813Z,10.70
2018-11-10T01:41:30.317Z,10.48
2018-11-10T01:44:34.635Z,10.17
2018-11-10T01:47:38.943Z,11.67
2018-11-10T01:50:43.243Z,12.13
2018-11-10T01:53:47.555Z,11.03
2018-11-10T01:56:51.856Z,10.30
2018-11-10T01:59:56.569Z,9.47
2018-11-10T02:03:00.870Z,9.97
2018-11-10T02:06:05.311Z,10.35
2018-11-10T02:09:10.593Z,9.97
2018-11-10T02:12:14.897Z,9.90
2018-11-10T02:15:19.335Z,9.20
2018-11-10T02:18:23.640Z,10.80
2018-11-10T02:21:28.024Z,10.50
2018-11-10T02:24:32.330Z,9.97
2018-11-10T02:27:36.622Z,9.93
2018-11-10T02:30:40.913Z,9.53
2018-11-10T02:33:45.381Z,9.83
2018-11-10T02:36:49.749Z,9.87
2018-11-10T02:39:54.081Z,10.73
2018-11-10T02:42:58.454Z,9.28
2018-11-10T02:46:02.818Z,10.30
2018-11-10T02:49:07.245Z,8.53
2018-11-10T02:52:11.548Z,8.70
2018-11-10T02:55:15.825Z,8.57
2018-11-10T02:58:20.224Z,8.90
2018-11-10T03:01:25.929Z,8.15
2018-11-10T03:04:31.035Z,9.20
2018-11-10T03:07:35.470Z,8.53
2018-11-10T03:10:39.759Z,9.07
2018-11-10T03:13:44.193Z,8.93
2018-11-10T03:16:48.520Z,7.60
2018-11-10T03:19:52.917Z,8.57
2018-11-10T03:22:57.201Z,9.40
2018-11-10T03:26:01.521Z,9.13
2018-11-10T03:29:06.031Z,7.40
2018-11-10T03:32:10.300Z,9.07
2018-11-10T03:35:14.582Z,8.87
2018-11-10T03:38:18.879Z,7.70
2018-11-10T03:41:23.171Z,8.03
2018-11-10T03:44:27.450Z,7.23
2018-11-10T03:47:31.740Z,8.90
2018-11-10T03:50:36.030Z,7.60
2018-11-10T03:53:40.726Z,8.60
2018-11-10T03:56:45.014Z,7.13
2018-11-10T03:59:49.300Z,7.03
2018-11-10T04:02:53.562Z,6.87
2018-11-10T04:05:57.846Z,7.73
2018-11-10T04:09:02.115Z,7.40
2018-11-10T04:12:07.073Z,7.67
2018-11-10T04:15:11.352Z,7.67
2018-11-10T04:18:15.712Z,8.43
2018-11-10T04:21:20.047Z,7.13
2018-11-10T04:24:24.312Z,7.77
2018-11-10T04:27:28.944Z,7.50
2018-11-10T04:30:33.345Z,7.43
2018-11-10T04:33:37.664Z,7.77
2018-11-10T04:36:42.129Z,7.00
2018-11-10T04:39:46.426Z,6.80
2018-11-10T04:42:50.733Z,7.10
2018-11-10T04:45:55.020Z,8.10
2018-11-10T04:48:59.307Z,7.20
2018-11-10T04:52:03.567Z,8.23
2018-11-10T04:55:08.887Z,8.83
2018-11-10T04:58:13.192Z,7.77
2018-11-10T05:01:17.616Z,8.10
2018-11-10T05:04:22.024Z,7.97
2018-11-10T05:07:26.316Z,7.33
2018-11-10T05:10:30.602Z,7.73
2018-11-10T05:13:34.880Z,7.10
2018-11-10T05:16:39.177Z,7.53
2018-11-10T05:19:43.504Z,7.10
2018-11-10T05:22:47.792Z,8.37
2018-11-10T05:25:52.074Z,8.43
2018-11-10T05:28:56.372Z,7.97
2018-11-10T05:32:00.733Z,7.63
2018-11-10T05:35:06.524Z,8.23
2018-11-10T05:38:10.809Z,7.87
2018-11-10T05:41:15.267Z,7.22
2018-11-10T05:44:19.545Z,8.83
2018-11-10T05:47:23.828Z,8.63
2018-11-10T05:50:28.373Z,7.77
2018-11-10T05:53:32.700Z,7.60
2018-11-10T05:56:36.992Z,7.90
2018-11-10T05:59:41.275Z,8.13
2018-11-10T06:02:45.662Z,7.50
2018-11-10T06:05:50.125Z,7.10
2018-11-10T06:08:54.559Z,6.92
2018-11-10T06:11:59.261Z,7.53
2018-11-10T06:15:03.913Z,7.17
2018-11-10T06:18:08.621Z,7.00
2018-11-10T06:21:13.020Z,7.23
2018-11-10T06:24:17.311Z,6.97
2018-11-10T06:27:21.618Z,7.00
2018-11-10T06:30:25.914Z,6.83
2018-11-10T06:33:30.240Z,6.47
2018-11-10T06:36:34.642Z,6.60
2018-11-10T06:39:39.170Z,7.50
2018-11-10T06:42:44.041Z,7.13
2018-11-10T06:45:48.547Z,6.53
2018-11-10T06:48:53.007Z,8.03
2018-11-10T06:51:57.597Z,7.97
2018-11-10T06:55:02.871Z,6.80
2018-11-10T06:58:07.555Z,6.90
2018-11-10T07:01:12.007Z,6.97
2018-11-10T07:04:16.404Z,7.50
2018-11-10T07:07:20.757Z,7.00
2018-11-10T07:10:25.146Z,8.57
2018-11-10T07:13:29.545Z,7.53
2018-11-10T07:19:46.523Z,8.13
2018-11-10T07:22:50.850Z,7.47
2018-11-10T07:25:55.234Z,7.20
2018-11-10T07:28:59.571Z,7.20
2018-11-10T07:32:04.046Z,6.93
2018-11-10T07:35:09.260Z,6.57
2018-11-10T07:38:13.663Z,6.23
2018-11-10T07:41:18.093Z,6.67
2018-11-10T07:44:22.492Z,6.40
2018-11-10T07:47:26.928Z,5.97
2018-11-10T07:50:31.353Z,6.40
2018-11-10T07:53:35.834Z,6.05
2018-11-10T07:56:40.219Z,6.30
2018-11-10T07:59:44.628Z,6.23
2018-11-10T08:02:49.068Z,5.60
2018-11-10T08:05:53.508Z,6.00
2018-11-10T08:08:57.929Z,6.40
2018-11-10T08:12:02.568Z,5.40
2018-11-10T08:15:10.513Z,5.30
2018-11-10T08:18:15.330Z,6.13
2018-11-10T08:21:20.012Z,5.57
2018-11-10T08:24:25.180Z,5.67
2018-11-10T08:27:29.940Z,6.07
2018-11-10T08:30:34.816Z,5.77
2018-11-10T08:33:39.252Z,5.83
2018-11-10T08:36:43.762Z,4.97
2018-11-10T08:39:48.176Z,5.60
2018-11-10T08:42:52.599Z,4.60
2018-11-10T08:45:57.145Z,5.07
2018-11-10T08:49:01.705Z,5.83
2018-11-10T08:52:06.132Z,5.70
2018-11-10T08:55:11.600Z,5.47
2018-11-10T08:58:16.717Z,6.90
2018-11-10T09:01:21.105Z,5.87
2018-11-10T09:04:25.515Z,6.30
2018-11-10T09:07:29.966Z,6.07
2018-11-10T09:10:34.367Z,6.37
2018-11-10T09:13:38.792Z,5.43
2018-11-10T09:16:43.392Z,5.17
2018-11-10T09:19:47.872Z,6.20
2018-11-10T09:22:52.175Z,5.60
2018-11-10T09:25:56.583Z,6.33
2018-11-10T09:29:01.057Z,5.70
2018-11-10T09:32:06.124Z,5.77
2018-11-10T09:35:13.971Z,6.10
2018-11-10T09:38:18.384Z,6.03
2018-11-10T09:41:22.722Z,5.97
2018-11-10T09:44:27.056Z,6.00
2018-11-10T09:47:31.497Z,6.93
2018-11-10T09:50:35.917Z,6.87
2018-11-10T09:53:40.331Z,7.07
2018-11-10T09:56:44.631Z,7.30
2018-11-10T09:59:49.090Z,6.60
2018-11-10T10:02:53.484Z,7.10
2018-11-10T10:05:59.116Z,7.37
2018-11-10T10:09:04.139Z,7.10
2018-11-10T10:12:08.672Z,6.83
2018-11-10T10:15:14.239Z,7.13
2018-11-10T10:18:18.513Z,7.77
2018-11-10T10:21:22.909Z,6.53
2018-11-10T10:24:27.245Z,8.37
2018-11-10T10:27:31.564Z,7.63
2018-11-10T10:30:35.856Z,7.80
2018-11-10T10:33:40.240Z,6.62
2018-11-10T10:36:44.677Z,7.80
2018-11-10T10:39:49.129Z,8.60
2018-11-10T10:42:53.455Z,8.70
2018-11-10T10:53:43.134Z,7.50
2018-11-10T10:56:47.541Z,8.73
2018-11-10T10:59:51.839Z,7.20
2018-11-10T11:02:56.304Z,9.37
2018-11-10T11:06:02.226Z,7.90
2018-11-10T11:09:07.713Z,8.20
2018-11-10T11:12:12.089Z,8.13
2018-11-10T11:15:16.509Z,9.10
2018-11-10T11:18:20.844Z,8.97
2018-11-10T11:21:25.164Z,8.87
2018-11-10T11:24:29.485Z,8.93
2018-11-10T11:27:33.893Z,8.73
2018-11-10T11:30:38.311Z,8.67
2018-11-10T11:33:44.240Z,7.63
2018-11-10T11:36:50.671Z,8.80
2018-11-10T11:39:55.292Z,8.73
2018-11-10T11:42:59.754Z,7.30
2018-11-10T11:46:04.237Z,8.03
2018-11-10T11:49:08.557Z,7.50
2018-11-10T11:52:12.917Z,7.17
2018-11-10T11:55:17.347Z,8.07
2018-11-10T11:58:21.821Z,8.33
2018-11-10T12:01:26.577Z,7.80
2018-11-10T12:04:31.080Z,7.17
2018-11-10T12:07:35.467Z,7.00
2018-11-10T12:10:39.880Z,7.00
2018-11-10T12:13:44.379Z,6.97
2018-11-10T12:16:48.808Z,7.27
2018-11-10T12:19:53.165Z,6.70
2018-11-10T12:22:57.649Z,6.97
2018-11-10T12:26:02.034Z,7.13
2018-11-10T12:29:06.626Z,7.13
2018-11-10T12:32:11.004Z,7.00
2018-11-10T12:35:15.420Z,7.07
2018-11-10T12:38:19.860Z,7.10
2018-11-10T12:41:24.156Z,7.20
2018-11-10T12:44:28.598Z,6.63
2018-11-10T12:47:32.947Z,6.57
2018-11-10T12:50:37.201Z,5.67
2018-11-10T12:53:41.552Z,6.03
2018-11-10T12:56:45.832Z,6.27
2018-11-10T12:59:50.232Z,6.33
2018-11-10T13:02:54.569Z,6.07
2018-11-10T13:06:00.036Z,5.67
2018-11-10T13:09:06.233Z,6.00
2018-11-10T13:12:11.633Z,5.17
2018-11-10T13:15:16.048Z,6.10
2018-11-10T13:18:20.909Z,6.00
2018-11-10T13:21:25.308Z,5.50
2018-11-10T13:24:29.810Z,5.60
2018-11-10T13:27:34.088Z,5.67
2018-11-10T13:30:38.592Z,5.53
2018-11-10T13:33:43.043Z,5.17
2018-11-10T13:36:47.439Z,5.70
2018-11-10T13:39:51.835Z,5.70
2018-11-10T13:42:56.116Z,5.57
2018-11-10T13:46:00.521Z,6.10
2018-11-10T13:49:05.604Z,5.80
2018-11-10T13:52:11.143Z,5.80
2018-11-10T13:55:16.105Z,6.77
2018-11-10T13:58:22.179Z,6.53
2018-11-10T14:01:27.272Z,6.23
2018-11-10T14:04:32.596Z,7.20
2018-11-10T14:07:37.113Z,7.73
2018-11-10T14:10:41.476Z,6.10
2018-11-10T14:13:45.960Z,6.00
2018-11-10T14:16:50.412Z,6.90
2018-11-10T14:19:55.017Z,6.00
2018-11-10T14:22:59.419Z,6.67
2018-11-10T14:26:03.811Z,6.17
2018-11-10T14:29:09.155Z,6.67
2018-11-10T14:32:13.681Z,6.67
2018-11-10T14:35:18.742Z,6.40
2018-11-10T14:38:23.676Z,7.27
2018-11-10T14:41:28.352Z,6.10
2018-11-10T14:44:33.024Z,6.47
2018-11-10T14:47:37.371Z,6.17
2018-11-10T14:50:41.803Z,7.17
2018-11-10T14:53:46.212Z,6.47
2018-11-10T14:56:50.585Z,6.53
2018-11-10T14:59:54.936Z,6.80
2018-11-10T15:02:59.261Z,6.47
2018-11-10T15:06:03.569Z,7.77
2018-11-10T15:09:09.217Z,9.10
2018-11-10T15:12:13.759Z,9.77
2018-11-10T15:15:18.861Z,9.60
2018-11-10T15:18:23.429Z,9.23
2018-11-10T15:21:28.956Z,10.50
2018-11-10T15:24:33.900Z,9.90
2018-11-10T15:27:38.621Z,10.43
2018-11-10T15:30:43.020Z,10.27
2018-11-10T15:33:48.879Z,9.53
2018-11-10T15:36:53.712Z,9.63
2018-11-10T15:39:58.747Z,10.33
2018-11-10T15:43:03.689Z,10.47
2018-11-10T15:46:08.189Z,9.43
2018-11-10T15:49:12.578Z,10.27
2018-11-10T15:52:16.937Z,10.10
2018-11-10T15:55:23.213Z,11.90
2018-11-10T15:58:27.616Z,12.70
2018-11-10T16:01:32.169Z,13.20
2018-11-10T16:04:36.552Z,13.80
2018-11-10T16:07:40.896Z,15.00
2018-11-10T16:13:54.942Z,15.53
2018-11-10T16:16:59.308Z,16.43
2018-11-10T16:20:03.825Z,16.80
2018-11-10T16:23:08.153Z,14.73
2018-11-10T16:26:12.432Z,14.43
2018-11-10T16:29:16.737Z,15.53
2018-11-10T16:32:21.129Z,15.57
2018-11-10T16:35:25.513Z,16.67
2018-11-10T16:38:29.930Z,16.47
2018-11-10T16:41:34.381Z,17.57
2018-11-10T16:44:38.817Z,15.77
2018-11-10T16:47:43.081Z,16.60
2018-11-10T16:50:47.354Z,15.87
2018-11-10T16:53:51.764Z,14.47
2018-11-10T16:56:56.047Z,14.27
2018-11-10T17:00:00.370Z,15.43
2018-11-10T17:03:04.807Z,13.93
2018-11-10T17:06:09.422Z,11.37
2018-11-10T17:09:14.649Z,14.40
2018-11-10T17:12:19.364Z,14.70
2018-11-10T17:15:24.417Z,14.47
2018-11-10T17:18:28.728Z,15.67
2018-11-10T17:21:33.115Z,15.27
2018-11-10T17:35:46.990Z,27.47
2018-11-10T17:38:51.408Z,22.97
2018-11-10T17:41:56.937Z,22.50
2018-11-10T17:45:39.156Z,27.47
2018-11-10T17:48:43.830Z,27.20
2018-11-10T17:51:49.123Z,27.03
2018-11-10T17:54:54.248Z,27.83
2018-11-10T17:57:58.906Z,25.40
2018-11-10T18:01:03.298Z,23.70
2018-11-10T18:04:07.601Z,26.77
2018-11-10T18:07:12.030Z,24.57
2018-11-10T18:10:17.777Z,23.87
2018-11-10T18:13:22.244Z,21.33
2018-11-10T18:16:26.732Z,21.80
2018-11-10T18:19:31.129Z,20.37
2018-11-10T18:22:35.487Z,23.80
2018-11-10T18:25:39.833Z,25.00
2018-11-10T18:28:44.195Z,25.25
2018-11-10T18:31:48.574Z,24.80
2018-11-10T18:34:52.948Z,22.17
2018-11-10T18:37:57.284Z,18.17
2018-11-10T18:41:01.601Z,18.83
2018-11-10T18:44:06.082Z,17.97
2018-11-10T18:47:10.519Z,17.03
2018-11-10T18:50:15.925Z,16.33
2018-11-10T18:53:20.245Z,14.83
2018-11-10T18:56:24.569Z,14.90
2018-11-10T18:59:28.945Z,17.13
2018-11-10T19:02:33.324Z,18.90
2018-11-10T19:05:37.696Z,12.33
2018-11-10T19:08:42.090Z,12.10
2018-11-10T19:11:46.556Z,15.43
2018-11-10T19:14:50.909Z,10.33
2018-11-10T19:17:55.296Z,10.57
2018-11-10T19:20:59.741Z,12.40
2018-11-10T19:24:04.248Z,13.33
2018-11-10T19:27:08.633Z,17.17
2018-11-10T19:30:16.772Z,17.03
2018-11-10T19:33:21.063Z,16.13
2018-11-10T19:36:25.403Z,17.85
2018-11-10T19:39:29.697Z,19.03
2018-11-10T19:42:34.158Z,17.93
2018-11-10T19:45:38.457Z,17.17
2018-11-10T19:48:42.873Z,16.83
2018-11-10T19:51:47.435Z,17.37
2018-11-10T19:54:51.513Z,18.90
2018-11-10T19:57:56.364Z,20.20
2018-11-10T20:01:01.914Z,21.52
2018-11-10T20:11:34.307Z,16.77
2018-11-10T20:14:38.746Z,17.90
2018-11-10T20:17:44.586Z,20.33
2018-11-10T20:20:50.261Z,19.00
2018-11-10T20:24:05.322Z,19.03
2018-11-10T20:30:58.726Z,17.53
2018-11-10T20:34:04.444Z,17.47
2018-11-10T20:37:11.133Z,16.27
2018-11-10T20:40:16.781Z,18.20
2018-11-10T20:43:22.860Z,14.63
2018-11-10T20:46:28.603Z,15.57
2018-11-10T20:49:36.938Z,16.07
2018-11-10T20:52:48.903Z,16.63
2018-11-10T20:56:17.743Z,15.10
2018-11-10T20:59:32.891Z,13.53
2018-11-10T21:02:52.887Z,14.53
2018-11-10T21:06:24.668Z,15.33
2018-11-10T21:09:28.964Z,12.87
2018-11-10T21:12:43.055Z,14.17
2018-11-10T21:15:55.427Z,13.27
2018-11-10T21:19:01.023Z,12.87
2018-11-10T21:22:12.306Z,13.37
2018-11-10T21:25:18.447Z,13.03
2018-11-10T21:28:23.737Z,11.00
2018-11-10T21:31:29.948Z,12.50
2018-11-10T21:34:37.426Z,12.33
2018-11-10T21:37:42.886Z,11.48
2018-11-10T21:40:48.743Z,11.53
2018-11-10T21:43:53.367Z,10.83
2018-11-10T21:46:58.663Z,12.43
2018-11-10T21:50:03.781Z,12.30
2018-11-10T21:53:09.396Z,13.03
2018-11-10T21:56:14.699Z,13.97
2018-11-10T21:59:20.623Z,11.80
2018-11-10T22:02:27.585Z,11.83
2018-11-10T22:05:32.493Z,10.37
2018-11-10T22:08:37.510Z,10.67
2018-11-10T22:11:44.051Z,11.37
2018-11-10T22:14:49.565Z,10.90
2018-11-10T22:17:54.119Z,11.00
2018-11-10T22:20:58.453Z,10.27
2018-11-10T22:24:02.923Z,10.50
2018-11-10T22:27:07.543Z,10.87
2018-11-10T22:30:13.702Z,10.57
2018-11-10T22:33:18.058Z,9.87
2018-11-10T22:36:22.306Z,9.63
2018-11-10T22:39:26.551Z,8.70
2018-11-10T22:42:30.816Z,9.70
2018-11-10T22:45:35.066Z,8.80
2018-11-10T22:49:26.109Z,10.18
2018-11-10T22:52:30.371Z,9.33
2018-11-10T22:55:34.686Z,8.90
2018-11-10T22:58:38.975Z,8.30
2018-11-10T23:01:43.359Z,7.80
2018-11-10T23:04:47.615Z,8.27
2018-11-10T23:07:51.979Z,9.37
2018-11-10T23:10:56.339Z,8.37
2018-11-10T23:14:00.611Z,8.73
2018-11-10T23:17:05.190Z,9.60
2018-11-10T23:20:11.385Z,9.00
2018-11-10T23:23:15.700Z,10.50
2018-11-10T23:26:19.928Z,9.37
2018-11-10T23:29:24.244Z,8.43
2018-11-10T23:32:28.589Z,8.77
2018-11-10T23:35:32.892Z,8.00
2018-11-10T23:38:37.171Z,8.20
2018-11-10T23:41:41.977Z,8.73
2018-11-10T23:44:46.226Z,9.07
2018-11-10T23:47:50.555Z,8.73
2018-11-10T23:50:54.823Z,9.40
2018-11-10T23:53:59.236Z,9.87
2018-11-10T23:57:03.476Z,8.70
